Time,TemperatureF,DewpointF,PressureIn,WindDirection,WindDirectionDegrees,WindSpeedMPH,WindSpeedGustMPH,Humidity,HourlyPrecipIn,Conditions,Clouds,dailyrainin,SoftwareType,DateUTC
2013-03-03 00:02:00,38.0,34.0,29.88,West,272,1.0,5.0,85,0.00,,,0.00,,2013-03-03 05:02:00,
2013-03-03 00:12:00,38.0,34.0,29.88,West,272,1.0,5.0,85,0.00,,,0.00,,2013-03-03 05:12:00,
2013-03-03 00:22:00,38.0,34.0,29.88,West,265,2.0,5.0,86,0.00,,,0.00,,2013-03-03 05:22:00,
2013-03-03 00:32:00,37.0,34.0,29.88,West,261,2.0,7.0,87,0.00,,,0.00,,2013-03-03 05:32:00,
2013-03-03 00:42:00,37.0,34.0,29.88,West,261,2.0,7.0,87,0.00,,,0.00,,2013-03-03 05:42:00,
2013-03-03 00:52:00,37.0,34.0,29.88,West,268,1.0,5.0,87,0.00,,,0.00,,2013-03-03 05:52:00,
2013-03-03 01:02:00,37.0,34.0,29.88,West,268,2.0,5.0,88,0.00,,,0.00,,2013-03-03 06:02:00,
2013-03-03 01:11:00,37.0,34.0,29.88,West,268,2.0,5.0,88,0.00,,,0.00,,2013-03-03 06:11:00,
2013-03-03 01:21:00,37.0,34.0,29.88,West,281,1.0,4.0,88,0.00,,,0.00,,2013-03-03 06:21:00,
2013-03-03 01:32:00,37.0,34.0,29.88,WNW,293,0.0,2.0,89,0.00,,,0.00,,2013-03-03 06:32:00,
2013-03-03 01:42:00,37.0,34.0,29.88,WNW,293,0.0,2.0,89,0.00,,,0.00,,2013-03-03 06:42:00,
2013-03-03 01:52:00,37.0,34.0,29.88,West,269,2.0,5.0,89,0.00,,,0.00,,2013-03-03 06:52:00,
2013-03-03 02:01:00,37.0,34.0,29.88,West,272,2.0,6.0,89,0.00,,,0.00,,2013-03-03 07:01:00,
2013-03-03 02:11:00,37.0,34.0,29.88,West,272,2.0,6.0,89,0.00,,,0.00,,2013-03-03 07:11:00,
2013-03-03 02:21:00,37.0,34.0,29.88,NW,312,1.0,6.0,89,0.00,,,0.00,,2013-03-03 07:21:00,
2013-03-03 02:32:00,38.0,35.0,29.88,WNW,292,2.0,8.0,90,0.00,,,0.00,,2013-03-03 07:32:00,
2013-03-03 02:42:00,38.0,35.0,29.88,WNW,292,2.0,8.0,90,0.00,,,0.00,,2013-03-03 07:42:00,
2013-03-03 02:51:00,38.0,35.0,29.88,WNW,284,2.0,8.0,89,0.00,,,0.00,,2013-03-03 07:51:00,
2013-03-03 03:01:00,39.0,36.0,29.88,West,269,2.0,7.0,88,0.00,,,0.00,,2013-03-03 08:01:00,
2013-03-03 03:11:00,39.0,36.0,29.88,West,269,2.0,7.0,88,0.00,,,0.00,,2013-03-03 08:11:00,
2013-03-03 03:21:00,38.0,34.0,29.88,NW,304,5.0,10.0,87,0.00,,,0.00,,2013-03-03 08:21:00,
2013-03-03 03:32:00,38.0,34.0,29.88,NW,313,3.0,12.0,84,0.00,,,0.00,,2013-03-03 08:32:00,
2013-03-03 03:42:00,38.0,34.0,29.88,NW,313,3.0,12.0,84,0.00,,,0.00,,2013-03-03 08:42:00,
2013-03-03 03:53:00,38.0,33.0,29.88,WNW,297,5.0,17.0,81,0.00,,,0.00,,2013-03-03 08:53:00,
2013-03-03 04:02:00,37.0,30.0,29.88,NW,323,4.0,12.0,77,0.00,,,0.00,,2013-03-03 09:02:00,
2013-03-03 04:12:00,37.0,30.0,29.88,NW,323,4.0,12.0,77,0.00,,,0.00,,2013-03-03 09:12:00,
2013-03-03 04:21:00,37.0,29.0,29.88,NNW,343,7.0,14.0,74,0.00,,,0.00,,2013-03-03 09:21:00,
2013-03-03 04:32:00,37.0,28.0,29.88,NW,309,5.0,17.0,71,0.00,,,0.00,,2013-03-03 09:32:00,
2013-03-03 04:42:00,37.0,28.0,29.88,NW,309,5.0,17.0,71,0.00,,,0.00,,2013-03-03 09:42:00,
2013-03-03 04:51:00,37.0,27.0,29.88,WNW,292,5.0,11.0,68,0.00,,,0.00,,2013-03-03 09:51:00,
2013-03-03 05:01:00,36.0,26.0,29.89,NW,309,3.0,9.0,68,0.00,,,0.00,,2013-03-03 10:01:00,
2013-03-03 05:12:00,36.0,26.0,29.89,NW,309,3.0,9.0,68,0.00,,,0.00,,2013-03-03 10:12:00,
2013-03-03 05:21:00,36.0,28.0,29.90,West,269,2.0,8.0,72,0.00,,,0.00,,2013-03-03 10:21:00,
2013-03-03 05:32:00,36.0,28.0,29.91,NW,304,3.0,8.0,73,0.00,,,0.00,,2013-03-03 10:32:00,
2013-03-03 05:42:00,36.0,28.0,29.91,NW,304,3.0,8.0,73,0.00,,,0.00,,2013-03-03 10:42:00,
2013-03-03 05:52:00,36.0,28.0,29.91,NW,307,3.0,7.0,72,0.00,,,0.00,,2013-03-03 10:52:00,
2013-03-03 06:01:00,36.0,28.0,29.91,NW,317,3.0,9.0,71,0.00,,,0.00,,2013-03-03 11:01:00,
2013-03-03 06:11:00,36.0,28.0,29.91,NW,317,3.0,9.0,71,0.00,,,0.00,,2013-03-03 11:11:00,
2013-03-03 06:22:00,36.0,27.0,29.91,NNW,328,3.0,10.0,69,0.00,,,0.00,,2013-03-03 11:22:00,
2013-03-03 06:32:00,36.0,26.0,29.91,West,281,2.0,8.0,68,0.00,,,0.00,,2013-03-03 11:32:00,
2013-03-03 06:42:00,36.0,26.0,29.91,West,281,2.0,8.0,68,0.00,,,0.00,,2013-03-03 11:42:00,
2013-03-03 06:52:00,36.0,26.0,29.91,NW,321,3.0,9.0,67,0.00,,,0.00,,2013-03-03 11:52:00,
2013-03-03 07:02:00,36.0,26.0,29.92,NNW,348,3.0,8.0,67,0.00,,,0.00,,2013-03-03 12:02:00,
2013-03-03 07:11:00,36.0,26.0,29.92,NNW,348,3.0,8.0,67,0.00,,,0.00,,2013-03-03 12:11:00,
2013-03-03 07:21:00,36.0,26.0,29.92,NW,319,2.0,10.0,66,0.00,,,0.00,,2013-03-03 12:21:00,
2013-03-03 07:32:00,36.0,25.0,29.92,WNW,288,5.0,11.0,64,0.00,,,0.00,,2013-03-03 12:32:00,
2013-03-03 07:43:00,36.0,25.0,29.92,WNW,288,5.0,11.0,64,0.00,,,0.00,,2013-03-03 12:43:00,
2013-03-03 07:52:00,36.0,25.0,29.92,NW,306,3.0,8.0,65,0.00,,,0.00,,2013-03-03 12:52:00,
2013-03-03 08:02:00,36.0,25.0,29.93,NW,325,5.0,11.0,65,0.00,,,0.00,,2013-03-03 13:02:00,
2013-03-03 08:11:00,36.0,25.0,29.93,NW,325,5.0,11.0,65,0.00,,,0.00,,2013-03-03 13:11:00,
2013-03-03 08:22:00,36.0,25.0,29.93,NNW,344,3.0,9.0,64,0.00,,,0.00,,2013-03-03 13:22:00,
2013-03-03 08:32:00,37.0,25.0,29.94,NW,320,3.0,11.0,62,0.00,,,0.00,,2013-03-03 13:32:00,
2013-03-03 08:42:00,37.0,25.0,29.94,NW,320,3.0,11.0,62,0.00,,,0.00,,2013-03-03 13:42:00,
2013-03-03 08:52:00,38.0,25.0,29.94,WNW,303,5.0,12.0,59,0.00,,,0.00,,2013-03-03 13:52:00,
2013-03-03 09:02:00,38.0,24.0,29.94,WNW,294,5.0,15.0,56,0.00,,,0.00,,2013-03-03 14:02:00,
2013-03-03 09:11:00,38.0,24.0,29.94,WNW,294,5.0,15.0,56,0.00,,,0.00,,2013-03-03 14:11:00,
2013-03-03 09:21:00,38.0,24.0,29.94,WNW,294,5.0,15.0,56,0.00,,,0.00,,2013-03-03 14:21:00,
2013-03-03 09:32:00,40.0,24.0,29.94,NNW,344,6.0,14.0,52,0.00,,,0.00,,2013-03-03 14:32:00,
2013-03-03 09:42:00,40.0,24.0,29.94,NNW,344,6.0,14.0,52,0.00,,,0.00,,2013-03-03 14:42:00,
2013-03-03 09:52:00,41.0,25.0,29.94,NW,315,6.0,15.0,52,0.00,,,0.00,,2013-03-03 14:52:00,
2013-03-03 10:02:00,40.0,24.0,29.94,NNW,329,7.0,13.0,52,0.00,,,0.00,,2013-03-03 15:02:00,
2013-03-03 10:11:00,40.0,24.0,29.94,NNW,329,7.0,13.0,52,0.00,,,0.00,,2013-03-03 15:11:00,
2013-03-03 10:22:00,41.0,25.0,29.93,WNW,297,4.0,11.0,52,0.00,,,0.00,,2013-03-03 15:22:00,
2013-03-03 10:32:00,41.0,24.0,29.93,West,267,2.0,13.0,51,0.00,,,0.00,,2013-03-03 15:32:00,
2013-03-03 10:42:00,41.0,24.0,29.93,West,267,2.0,13.0,51,0.00,,,0.00,,2013-03-03 15:42:00,
2013-03-03 10:52:00,42.0,25.0,29.93,WNW,288,4.0,10.0,50,0.00,,,0.00,,2013-03-03 15:52:00,
2013-03-03 11:02:00,42.0,24.0,29.93,NW,310,5.0,13.0,49,0.00,,,0.00,,2013-03-03 16:02:00,
2013-03-03 11:12:00,42.0,24.0,29.93,NW,310,5.0,13.0,49,0.00,,,0.00,,2013-03-03 16:12:00,
2013-03-03 11:22:00,43.0,26.0,29.93,West,274,3.0,9.0,50,0.00,,,0.00,,2013-03-03 16:22:00,
2013-03-03 11:32:00,43.0,25.0,29.93,NW,313,4.0,12.0,49,0.00,,,0.00,,2013-03-03 16:32:00,
2013-03-03 11:42:00,43.0,25.0,29.93,NW,313,4.0,12.0,49,0.00,,,0.00,,2013-03-03 16:42:00,
2013-03-03 11:52:00,44.0,25.0,29.93,NNE,19,5.0,13.0,47,0.00,,,0.00,,2013-03-03 16:52:00,
2013-03-03 12:01:00,45.0,26.0,29.92,WNW,299,8.0,15.0,47,0.00,,,0.00,,2013-03-03 17:01:00,
2013-03-03 12:12:00,45.0,27.0,29.91,West,276,6.0,18.0,48,0.00,,,0.00,,2013-03-03 17:12:00,
2013-03-03 12:22:00,45.0,27.0,29.91,West,276,6.0,18.0,48,0.00,,,0.00,,2013-03-03 17:22:00,
2013-03-03 12:32:00,46.0,27.0,29.91,West,266,7.0,19.0,47,0.00,,,0.00,,2013-03-03 17:32:00,
2013-03-03 12:42:00,46.0,27.0,29.91,West,266,7.0,19.0,47,0.00,,,0.00,,2013-03-03 17:42:00,
2013-03-03 12:52:00,46.0,26.0,29.90,WNW,297,5.0,19.0,46,0.00,,,0.00,,2013-03-03 17:52:00,
2013-03-03 13:02:00,45.0,25.0,29.90,SW,234,6.0,16.0,46,0.00,,,0.00,,2013-03-03 18:02:00,
2013-03-03 13:11:00,45.0,25.0,29.90,SW,234,6.0,16.0,46,0.00,,,0.00,,2013-03-03 18:11:00,
2013-03-03 13:21:00,46.0,26.0,29.89,WSW,249,7.0,17.0,45,0.00,,,0.00,,2013-03-03 18:21:00,
2013-03-03 13:32:00,47.0,26.0,29.89,West,267,7.0,16.0,44,0.00,,,0.00,,2013-03-03 18:32:00,
2013-03-03 13:42:00,47.0,26.0,29.89,West,267,7.0,16.0,44,0.00,,,0.00,,2013-03-03 18:42:00,
2013-03-03 13:52:00,47.0,27.0,29.88,SW,223,4.0,12.0,45,0.00,,,0.00,,2013-03-03 18:52:00,
2013-03-03 14:02:00,47.0,26.0,29.88,West,264,7.0,16.0,43,0.00,,,0.00,,2013-03-03 19:02:00,
2013-03-03 14:11:00,48.0,27.0,29.87,NW,316,6.0,15.0,43,0.00,,,0.00,,2013-03-03 19:11:00,
2013-03-03 14:22:00,48.0,27.0,29.87,NW,316,6.0,15.0,43,0.00,,,0.00,,2013-03-03 19:22:00,
2013-03-03 14:32:00,49.0,27.0,29.86,WSW,257,5.0,15.0,43,0.00,,,0.00,,2013-03-03 19:32:00,
2013-03-03 14:42:00,49.0,27.0,29.86,WSW,257,5.0,15.0,43,0.00,,,0.00,,2013-03-03 19:42:00,
2013-03-03 14:52:00,49.0,27.0,29.86,WNW,297,6.0,14.0,42,0.00,,,0.00,,2013-03-03 19:52:00,
2013-03-03 15:01:00,47.0,26.0,29.86,WNW,285,5.0,14.0,43,0.00,,,0.00,,2013-03-03 20:01:00,
2013-03-03 15:11:00,47.0,26.0,29.86,WNW,285,5.0,14.0,43,0.00,,,0.00,,2013-03-03 20:11:00,
2013-03-03 15:22:00,49.0,27.0,29.86,NW,325,5.0,17.0,43,0.00,,,0.00,,2013-03-03 20:22:00,
2013-03-03 15:32:00,49.0,26.0,29.86,WSW,255,7.0,16.0,41,0.00,,,0.00,,2013-03-03 20:32:00,
2013-03-03 15:42:00,49.0,26.0,29.86,WSW,255,7.0,16.0,41,0.00,,,0.00,,2013-03-03 20:42:00,
2013-03-03 15:52:00,49.0,26.0,29.86,West,265,8.0,22.0,41,0.00,,,0.00,,2013-03-03 20:52:00,
2013-03-03 16:02:00,48.0,26.0,29.85,WNW,292,5.0,18.0,42,0.00,,,0.00,,2013-03-03 21:02:00,
2013-03-03 16:12:00,48.0,26.0,29.85,WNW,292,5.0,18.0,42,0.00,,,0.00,,2013-03-03 21:12:00,
2013-03-03 16:22:00,48.0,26.0,29.86,WSW,248,6.0,14.0,42,0.00,,,0.00,,2013-03-03 21:22:00,
2013-03-03 16:32:00,49.0,26.0,29.86,SW,226,3.0,12.0,41,0.00,,,0.00,,2013-03-03 21:32:00,
2013-03-03 16:42:00,49.0,26.0,29.86,SW,226,3.0,12.0,41,0.00,,,0.00,,2013-03-03 21:42:00,
2013-03-03 16:52:00,48.0,25.0,29.86,West,264,6.0,14.0,41,0.00,,,0.00,,2013-03-03 21:52:00,
2013-03-03 17:02:00,49.0,26.0,29.85,West,279,5.0,13.0,41,0.00,,,0.00,,2013-03-03 22:02:00,
2013-03-03 17:11:00,49.0,26.0,29.85,West,279,5.0,13.0,41,0.00,,,0.00,,2013-03-03 22:11:00,
2013-03-03 17:22:00,48.0,25.0,29.86,NW,306,6.0,15.0,41,0.00,,,0.00,,2013-03-03 22:22:00,
2013-03-03 17:32:00,48.0,26.0,29.87,West,276,3.0,14.0,42,0.00,,,0.00,,2013-03-03 22:32:00,
2013-03-03 17:42:00,48.0,26.0,29.87,West,276,3.0,14.0,42,0.00,,,0.00,,2013-03-03 22:42:00,
2013-03-03 17:52:00,48.0,26.0,29.87,West,270,4.0,11.0,42,0.00,,,0.00,,2013-03-03 22:52:00,
2013-03-03 18:02:00,47.0,26.0,29.88,West,269,5.0,12.0,43,0.00,,,0.00,,2013-03-03 23:02:00,
2013-03-03 18:11:00,47.0,26.0,29.88,West,269,5.0,12.0,43,0.00,,,0.00,,2013-03-03 23:11:00,
2013-03-03 18:21:00,46.0,25.0,29.88,West,272,4.0,11.0,44,0.00,,,0.00,,2013-03-03 23:21:00,
2013-03-03 18:32:00,46.0,26.0,29.89,WSW,258,3.0,9.0,46,0.00,,,0.00,,2013-03-03 23:32:00,
2013-03-03 18:42:00,46.0,26.0,29.89,WSW,258,3.0,9.0,46,0.00,,,0.00,,2013-03-03 23:42:00,
2013-03-03 18:52:00,45.0,27.0,29.90,West,273,2.0,8.0,48,0.00,,,0.00,,2013-03-03 23:52:00,
2013-03-03 19:02:00,44.0,26.0,29.91,West,264,2.0,6.0,49,0.00,,,0.00,,2013-03-04 00:02:00,
2013-03-03 19:11:00,44.0,26.0,29.91,West,264,2.0,6.0,49,0.00,,,0.00,,2013-03-04 00:11:00,
2013-03-03 19:21:00,44.0,27.0,29.91,West,263,1.0,4.0,51,0.00,,,0.00,,2013-03-04 00:21:00,
2013-03-03 19:32:00,43.0,27.0,29.92,WSW,258,2.0,5.0,52,0.00,,,0.00,,2013-03-04 00:32:00,
2013-03-03 19:42:00,43.0,27.0,29.92,WSW,258,2.0,5.0,52,0.00,,,0.00,,2013-03-04 00:42:00,
2013-03-03 19:52:00,43.0,27.0,29.93,WSW,242,2.0,5.0,53,0.00,,,0.00,,2013-03-04 00:52:00,
2013-03-03 20:02:00,43.0,28.0,29.93,West,262,3.0,7.0,54,0.00,,,0.00,,2013-03-04 01:02:00,
2013-03-03 20:12:00,43.0,28.0,29.93,West,262,3.0,7.0,54,0.00,,,0.00,,2013-03-04 01:12:00,
2013-03-03 20:21:00,42.0,27.0,29.93,West,266,1.0,4.0,55,0.00,,,0.00,,2013-03-04 01:21:00,
2013-03-03 20:32:00,42.0,28.0,29.94,WSW,252,2.0,5.0,57,0.00,,,0.00,,2013-03-04 01:32:00,
2013-03-03 20:42:00,42.0,28.0,29.94,WSW,252,2.0,5.0,57,0.00,,,0.00,,2013-03-04 01:42:00,
2013-03-03 20:52:00,42.0,28.0,29.94,WSW,257,3.0,7.0,57,0.00,,,0.00,,2013-03-04 01:52:00,
2013-03-03 21:01:00,41.0,27.0,29.95,West,261,2.0,5.0,57,0.00,,,0.00,,2013-03-04 02:01:00,
2013-03-03 21:11:00,41.0,27.0,29.95,West,261,2.0,5.0,57,0.00,,,0.00,,2013-03-04 02:11:00,
2013-03-03 21:22:00,41.0,27.0,29.95,WSW,242,1.0,6.0,58,0.00,,,0.00,,2013-03-04 02:22:00,
2013-03-03 21:32:00,41.0,28.0,29.96,WSW,252,3.0,7.0,59,0.00,,,0.00,,2013-03-04 02:32:00,
2013-03-03 21:42:00,41.0,28.0,29.96,WSW,252,3.0,7.0,59,0.00,,,0.00,,2013-03-04 02:42:00,
2013-03-03 21:52:00,40.0,27.0,29.96,SW,234,3.0,8.0,59,0.00,,,0.00,,2013-03-04 02:52:00,
2013-03-03 22:02:00,40.0,27.0,29.96,WSW,257,3.0,8.0,60,0.00,,,0.00,,2013-03-04 03:02:00,
2013-03-03 22:11:00,40.0,27.0,29.96,WSW,257,3.0,8.0,60,0.00,,,0.00,,2013-03-04 03:11:00,
2013-03-03 22:22:00,40.0,28.0,29.97,West,269,3.0,9.0,61,0.00,,,0.00,,2013-03-04 03:22:00,
2013-03-03 22:32:00,40.0,28.0,29.97,WSW,249,2.0,7.0,62,0.00,,,0.00,,2013-03-04 03:32:00,
2013-03-03 22:42:00,39.0,27.0,29.97,WSW,255,1.0,6.0,63,0.00,,,0.00,,2013-03-04 03:42:00,
2013-03-03 22:52:00,39.0,27.0,29.97,WSW,255,1.0,6.0,63,0.00,,,0.00,,2013-03-04 03:52:00,
2013-03-03 23:01:00,39.0,28.0,29.97,WSW,243,2.0,5.0,65,0.00,,,0.00,,2013-03-04 04:01:00,
2013-03-03 23:11:00,39.0,28.0,29.97,WSW,243,2.0,5.0,65,0.00,,,0.00,,2013-03-04 04:11:00,
2013-03-03 23:22:00,38.0,28.0,29.97,WSW,257,2.0,7.0,66,0.00,,,0.00,,2013-03-04 04:22:00,
2013-03-03 23:32:00,38.0,28.0,29.97,WSW,257,2.0,7.0,66,0.00,,,0.00,,2013-03-04 04:32:00,
2013-03-03 23:42:00,38.0,28.0,29.97,WSW,257,2.0,7.0,66,0.00,,,0.00,,2013-03-04 04:42:00,
2013-03-03 23:52:00,38.0,28.0,29.97,SW,236,1.0,4.0,68,0.00,,,0.00,,2013-03-04 04:52:00,